Airfield :
LOGIN :

Register | Disclaimer

   EN    FR    IT 

 










Legend :    VFR   Marginal VFR   IFR   Intensive IFR   Very Intensive IFR
Visi :
Ceiling :
>= 8 km
>= 3000ft
5 to 8 km
1000 to 3000 ft
1500m to 5 km
500 to 1000 ft
800 to 1500m
200 to 500 ft
< 800m
< 200 ft
Symbols :   Thunderstorms  Fog  Heavy snow  Heavy precipitations  Wind > 20 kt
SIGMETs :     Misc.  Thunderstorms  Icing  Turbulence  Mountain Waves  Volcanic Ashes






- Airport Elevation : 584 ft


LFPV - Villacoublay Vélizy

CURRENT METAR :
  • 021530Z AUTO 19004KT 150V230 CAVOK 16/00 Q1027 NOSIG

EXPIRED METARs :
  • 021500Z AUTO 17004KT 110V200 CAVOK 16/02 Q1027 NOSIG
  • 021430Z AUTO VRB02KT CAVOK 17/02 Q1027 NOSIG
  • 021400Z AUTO VRB02KT 9999 FEW016 BKN130 15/02 Q1027
  • 021330Z AUTO 26003KT 210V320 CAVOK 16/03 Q1027 NOSIG
  • 021300Z AUTO 20005KT 170V250 CAVOK 15/03 Q1028 NOSIG

TAF TAF LFPV
Valid from the 02 at 15:00 until the 03 at 15:00 UTC


021400Z 0215/0315 26005KT CAVOK TX16/0215Z TN08/0306Z



MET'MAP, your aeronautical weather chart ! - Copyright ORBIFLY December 2007 - Disclaimer

ORBIFLY MET'MAP TEAM :

Programming & Development : Alexandra Zaïnal
Concept & original design : Baudouin d'Aumeries
Assistance for programming : Marc-Olivier Méhu
Technical & hardware support : Manuel Goepfert

Contact : metmap@orbifly.com




SOURCES & CREDITS :

   NOAA